createdAt,value
2018-06-22T00:02:27.892Z,99.10
2018-06-22T00:04:56.250Z,99.20
2018-06-22T00:07:24.569Z,99.30
2018-06-22T00:09:52.890Z,99.40
2018-06-22T00:12:21.168Z,99.40
2018-06-22T00:14:49.481Z,99.50
2018-06-22T00:17:17.791Z,99.60
2018-06-22T00:19:46.084Z,99.70
2018-06-22T00:22:14.498Z,99.80
2018-06-22T00:24:42.824Z,99.90
2018-06-22T00:27:11.146Z,99.90
2018-06-22T00:29:39.468Z,99.90
2018-06-22T00:32:07.849Z,99.90
2018-06-22T00:34:36.148Z,99.90
2018-06-22T00:37:04.516Z,99.90
2018-06-22T00:39:32.812Z,99.90
2018-06-22T00:42:01.131Z,99.90
2018-06-22T00:44:29.447Z,99.90
2018-06-22T00:46:57.747Z,99.90
2018-06-22T00:49:26.028Z,99.90
2018-06-22T00:51:54.352Z,99.90
2018-06-22T00:54:22.679Z,99.90
2018-06-22T00:56:51.013Z,99.90
2018-06-22T00:59:19.358Z,99.90
2018-06-22T01:01:47.661Z,99.90
2018-06-22T01:04:15.974Z,99.90
2018-06-22T01:06:44.293Z,99.90
2018-06-22T01:09:13.462Z,99.90
2018-06-22T01:11:41.747Z,99.90
2018-06-22T01:14:10.385Z,99.90
2018-06-22T01:16:38.765Z,99.90
2018-06-22T01:19:07.733Z,99.90
2018-06-22T01:21:36.178Z,99.90
2018-06-22T01:24:04.606Z,99.90
2018-06-22T01:26:32.905Z,99.90
2018-06-22T01:29:06.635Z,99.90
2018-06-22T01:31:34.977Z,99.90
2018-06-22T01:34:03.306Z,99.90
2018-06-22T01:36:31.589Z,99.90
2018-06-22T01:38:59.902Z,99.90
2018-06-22T01:41:28.227Z,99.90
2018-06-22T01:43:56.514Z,99.90
2018-06-22T01:46:24.830Z,99.90
2018-06-22T01:48:53.181Z,99.90
2018-06-22T01:51:21.475Z,99.90
2018-06-22T01:53:49.800Z,99.90
2018-06-22T01:56:18.154Z,99.90
2018-06-22T01:58:46.620Z,99.90
2018-06-22T02:01:14.958Z,99.90
2018-06-22T02:03:43.275Z,99.90
2018-06-22T02:06:11.593Z,99.90
2018-06-22T02:08:39.957Z,99.90
2018-06-22T02:11:08.289Z,99.90
2018-06-22T02:13:36.745Z,99.90
2018-06-22T02:16:05.087Z,99.90
2018-06-22T02:18:33.547Z,99.90
2018-06-22T02:21:01.872Z,99.90
2018-06-22T02:23:30.169Z,99.90
2018-06-22T02:25:58.559Z,99.90
2018-06-22T02:28:26.870Z,99.90
2018-06-22T02:30:55.271Z,99.90
2018-06-22T02:33:23.541Z,99.90
2018-06-22T02:35:51.822Z,99.90
2018-06-22T02:38:20.138Z,99.90
2018-06-22T02:40:48.529Z,99.90
2018-06-22T02:43:16.845Z,99.90
2018-06-22T02:45:45.136Z,99.90
2018-06-22T02:48:13.423Z,99.90
2018-06-22T02:50:41.720Z,99.90
2018-06-22T02:53:10.093Z,99.90
2018-06-22T02:55:38.431Z,99.90
2018-06-22T02:58:06.763Z,99.90
2018-06-22T03:00:36.001Z,99.90
2018-06-22T03:03:04.339Z,99.90
2018-06-22T03:05:32.638Z,99.90
2018-06-22T03:08:00.970Z,99.90
2018-06-22T03:10:29.258Z,99.90
2018-06-22T03:12:57.576Z,99.90
2018-06-22T03:15:25.908Z,99.90
2018-06-22T03:17:54.195Z,99.90
2018-06-22T03:20:22.508Z,99.90
2018-06-22T03:22:50.856Z,99.90
2018-06-22T03:25:19.165Z,99.90
2018-06-22T03:27:47.557Z,99.90
2018-06-22T03:30:15.861Z,99.90
2018-06-22T03:32:44.246Z,99.90
2018-06-22T03:35:12.665Z,99.90
2018-06-22T03:37:41.003Z,99.90
2018-06-22T03:40:09.322Z,99.90
2018-06-22T03:42:37.656Z,99.90
2018-06-22T03:45:05.986Z,99.90
2018-06-22T03:47:34.320Z,99.90
2018-06-22T03:50:02.644Z,99.90
2018-06-22T03:52:30.965Z,99.90
2018-06-22T03:54:59.278Z,99.90
2018-06-22T03:57:28.502Z,99.90
2018-06-22T03:59:56.831Z,99.90
2018-06-22T04:02:25.183Z,99.90
2018-06-22T04:04:53.523Z,99.90
2018-06-22T04:07:21.877Z,99.90
2018-06-22T04:09:50.206Z,99.90
2018-06-22T04:12:18.563Z,99.90
2018-06-22T04:14:46.922Z,99.90
2018-06-22T04:17:15.223Z,99.90
2018-06-22T04:19:43.534Z,99.90
2018-06-22T04:22:11.933Z,99.90
2018-06-22T04:24:40.286Z,99.90
2018-06-22T04:27:08.576Z,99.90
2018-06-22T04:29:36.938Z,99.90
2018-06-22T04:32:05.253Z,99.90
2018-06-22T04:34:33.531Z,99.90
2018-06-22T04:37:01.847Z,99.90
2018-06-22T04:39:30.184Z,99.90
2018-06-22T04:41:58.490Z,99.90
2018-06-22T04:44:26.822Z,99.90
2018-06-22T04:46:55.132Z,99.90
2018-06-22T04:49:23.451Z,99.90
2018-06-22T04:51:51.802Z,99.90
2018-06-22T04:54:20.153Z,99.90
2018-06-22T04:56:48.524Z,99.90
2018-06-22T04:59:16.832Z,99.60
2018-06-22T05:01:45.175Z,99.80
2018-06-22T05:04:13.520Z,99.20
2018-06-22T05:06:41.901Z,99.20
2018-06-22T05:09:10.241Z,99.20
2018-06-22T05:11:38.553Z,99.00
2018-06-22T05:14:06.917Z,98.10
2018-06-22T05:16:35.479Z,98.50
2018-06-22T05:19:03.801Z,98.70
2018-06-22T05:21:32.123Z,98.40
2018-06-22T05:24:00.474Z,98.10
2018-06-22T05:26:28.813Z,98.00
2018-06-22T05:28:57.125Z,98.10
2018-06-22T05:31:25.441Z,97.80
2018-06-22T05:33:53.860Z,97.90
2018-06-22T05:36:22.210Z,97.60
2018-06-22T05:38:50.542Z,97.20
2018-06-22T05:41:18.902Z,97.50
2018-06-22T05:43:47.263Z,97.60
2018-06-22T05:46:15.643Z,97.30
2018-06-22T05:48:43.969Z,97.30
2018-06-22T05:51:12.985Z,97.50
2018-06-22T05:53:41.355Z,98.10
2018-06-22T05:56:10.022Z,98.40
2018-06-22T05:58:38.914Z,99.10
2018-06-22T06:01:07.333Z,98.90
2018-06-22T06:06:04.662Z,98.00
2018-06-22T06:08:33.010Z,98.50
2018-06-22T06:11:01.374Z,97.20
2018-06-22T06:13:29.709Z,96.80
2018-06-22T06:15:58.025Z,97.00
2018-06-22T06:18:26.370Z,96.80
2018-06-22T06:20:54.714Z,96.30
2018-06-22T06:23:23.068Z,96.20
2018-06-22T06:25:51.687Z,95.40
2018-06-22T06:28:20.039Z,95.50
2018-06-22T06:30:48.377Z,95.60
2018-06-22T06:33:16.691Z,95.50
2018-06-22T06:35:45.038Z,95.50
2018-06-22T06:38:13.412Z,95.20
2018-06-22T06:40:41.733Z,95.10
2018-06-22T06:43:10.048Z,95.40
2018-06-22T06:45:38.407Z,95.10
2018-06-22T06:48:06.732Z,96.00
2018-06-22T06:50:35.051Z,95.30
2018-06-22T06:53:03.377Z,94.30
2018-06-22T06:55:31.796Z,93.60
2018-06-22T06:58:00.130Z,94.80
2018-06-22T07:00:28.510Z,94.60
2018-06-22T07:02:56.896Z,94.40
2018-06-22T07:05:25.317Z,94.20
2018-06-22T07:07:54.011Z,93.80
2018-06-22T07:10:22.323Z,94.80
2018-06-22T07:12:50.685Z,95.00
2018-06-22T07:15:18.996Z,94.60
2018-06-22T07:17:47.345Z,94.90
2018-06-22T07:20:15.699Z,95.20
2018-06-22T07:22:44.025Z,95.00
2018-06-22T07:25:12.385Z,95.80
2018-06-22T07:27:40.710Z,95.40
2018-06-22T07:30:09.054Z,95.80
2018-06-22T07:32:37.441Z,96.20
2018-06-22T07:35:05.823Z,95.60
2018-06-22T07:37:34.205Z,95.80
2018-06-22T07:40:02.497Z,95.80
2018-06-22T07:42:30.880Z,95.70
2018-06-22T07:44:59.259Z,96.20
2018-06-22T07:47:27.666Z,96.20
2018-06-22T07:49:56.093Z,96.00
2018-06-22T07:52:24.435Z,95.70
2018-06-22T07:54:52.801Z,95.30
2018-06-22T07:57:21.157Z,95.40
2018-06-22T07:59:49.555Z,95.50
2018-06-22T08:02:17.906Z,95.00
2018-06-22T08:04:46.388Z,95.10
2018-06-22T08:07:14.842Z,95.00
2018-06-22T08:09:43.142Z,94.80
2018-06-22T08:12:11.512Z,94.40
2018-06-22T08:14:39.965Z,93.40
2018-06-22T08:17:08.313Z,90.90
2018-06-22T08:19:36.636Z,91.30
2018-06-22T08:22:04.957Z,91.10
2018-06-22T08:24:33.333Z,91.00
2018-06-22T08:27:02.360Z,90.90
2018-06-22T08:29:30.698Z,91.80
2018-06-22T08:31:59.035Z,91.70
2018-06-22T08:34:27.544Z,90.70
2018-06-22T08:36:56.080Z,91.50
2018-06-22T08:39:24.499Z,91.30
2018-06-22T08:41:53.537Z,90.50
2018-06-22T08:44:22.833Z,89.10
2018-06-22T08:46:51.171Z,90.70
2018-06-22T08:49:19.520Z,90.20
2018-06-22T08:51:47.881Z,89.20
2018-06-22T08:54:16.295Z,87.40
2018-06-22T08:56:44.646Z,88.60
2018-06-22T08:59:13.013Z,88.50
2018-06-22T09:01:41.322Z,90.20
2018-06-22T09:04:09.842Z,89.60
2018-06-22T09:06:38.887Z,89.50
2018-06-22T09:09:07.866Z,89.10
2018-06-22T09:11:36.189Z,90.30
2018-06-22T09:14:04.534Z,90.40
2018-06-22T09:16:33.366Z,89.60
2018-06-22T09:19:01.713Z,90.00
2018-06-22T09:21:30.521Z,90.40
2018-06-22T09:23:59.708Z,90.70
2018-06-22T09:26:28.272Z,91.30
2018-06-22T09:28:56.646Z,90.80
2018-06-22T09:31:25.235Z,90.90
2018-06-22T09:33:53.604Z,91.30
2018-06-22T09:36:22.025Z,91.30
2018-06-22T09:38:51.339Z,90.90
2018-06-22T09:41:20.144Z,91.10
2018-06-22T09:43:48.892Z,91.50
2018-06-22T09:46:18.302Z,91.30
2018-06-22T09:48:46.811Z,91.20
2018-06-22T09:51:16.551Z,91.30
2018-06-22T09:53:46.172Z,90.40
2018-06-22T09:56:14.741Z,90.90
2018-06-22T09:58:43.229Z,91.80
2018-06-22T10:01:11.658Z,91.10
2018-06-22T10:03:41.838Z,91.00
2018-06-22T10:06:10.279Z,91.30
2018-06-22T10:08:39.094Z,91.50
2018-06-22T10:11:07.557Z,91.90
2018-06-22T10:13:36.171Z,91.90
2018-06-22T10:16:04.557Z,91.60
2018-06-22T10:18:33.062Z,91.90
2018-06-22T10:21:01.465Z,91.60
2018-06-22T10:23:30.279Z,92.20
2018-06-22T10:25:58.726Z,91.50
2018-06-22T10:28:27.169Z,91.50
2018-06-22T10:31:01.539Z,92.30
2018-06-22T10:33:30.454Z,91.40
2018-06-22T10:35:58.770Z,91.00
2018-06-22T10:38:27.258Z,91.10
2018-06-22T10:40:55.737Z,90.90
2018-06-22T10:43:24.469Z,91.70
2018-06-22T10:45:52.855Z,92.00
2018-06-22T10:48:21.178Z,91.40
2018-06-22T10:50:49.554Z,91.70
2018-06-22T10:53:17.927Z,92.40
2018-06-22T10:55:46.262Z,91.60
2018-06-22T10:58:14.676Z,91.80
2018-06-22T11:00:43.057Z,91.60
2018-06-22T11:03:11.440Z,91.40
2018-06-22T11:05:39.807Z,91.20
2018-06-22T11:08:08.277Z,90.50
2018-06-22T11:10:36.625Z,90.90
2018-06-22T11:13:05.164Z,91.60
2018-06-22T11:15:33.919Z,91.70
2018-06-22T11:18:02.369Z,91.20
2018-06-22T11:20:30.752Z,91.40
2018-06-22T11:22:59.192Z,91.50
2018-06-22T11:25:27.588Z,92.60
2018-06-22T11:27:55.943Z,91.90
2018-06-22T11:30:24.264Z,91.30
2018-06-22T11:32:52.632Z,91.20
2018-06-22T11:35:21.962Z,89.20
2018-06-22T11:37:50.348Z,88.60
2018-06-22T11:40:18.856Z,89.10
2018-06-22T11:42:47.262Z,90.70
2018-06-22T11:45:15.779Z,89.20
2018-06-22T11:47:49.557Z,90.60
2018-06-22T11:50:17.972Z,86.30
2018-06-22T11:52:46.410Z,87.10
2018-06-22T11:55:14.742Z,87.30
2018-06-22T11:57:43.157Z,88.00
2018-06-22T12:00:11.485Z,89.10
2018-06-22T12:02:39.942Z,88.50
2018-06-22T12:05:08.302Z,87.50
2018-06-22T12:07:36.641Z,85.10
2018-06-22T12:10:12.742Z,84.20
2018-06-22T12:12:41.324Z,83.10
2018-06-22T12:15:10.094Z,82.90
2018-06-22T12:17:38.666Z,81.40
2018-06-22T12:20:07.062Z,82.20
2018-06-22T12:22:36.068Z,83.30
2018-06-22T12:25:04.506Z,83.90
2018-06-22T12:27:32.916Z,82.90
2018-06-22T12:30:04.335Z,81.60
2018-06-22T12:35:01.008Z,76.40
2018-06-22T12:37:29.429Z,77.00
2018-06-22T12:39:57.815Z,78.60
2018-06-22T12:42:26.195Z,76.40
2018-06-22T12:44:54.586Z,80.40
2018-06-22T12:47:22.932Z,76.80
2018-06-22T12:49:51.346Z,78.40
2018-06-22T12:52:19.714Z,83.50
2018-06-22T12:54:48.113Z,79.80
2018-06-22T12:59:44.571Z,78.80
2018-06-22T13:02:13.019Z,77.20
2018-06-22T13:04:41.367Z,80.30
2018-06-22T13:07:09.756Z,77.50
2018-06-22T13:09:38.645Z,79.20
2018-06-22T13:12:07.092Z,78.40
2018-06-22T13:17:00.688Z,78.30
2018-06-22T13:19:29.032Z,80.30
2018-06-22T13:21:57.421Z,79.20
2018-06-22T13:24:26.566Z,80.80
2018-06-22T13:26:55.032Z,83.60
2018-06-22T13:29:23.417Z,85.00
2018-06-22T13:31:51.848Z,84.10
2018-06-22T13:34:20.258Z,82.10
2018-06-22T13:36:49.135Z,82.00
2018-06-22T13:39:18.722Z,79.20
2018-06-22T13:41:48.337Z,77.70
2018-06-22T13:46:45.226Z,83.70
2018-06-22T13:49:14.280Z,83.20
2018-06-22T13:51:42.926Z,84.50
2018-06-22T13:54:11.907Z,84.70
2018-06-22T13:56:41.263Z,86.20
2018-06-22T14:01:37.756Z,87.50
2018-06-22T14:04:11.475Z,83.70
2018-06-22T14:06:45.289Z,85.60
2018-06-22T14:09:14.853Z,84.60
2018-06-22T14:11:43.697Z,82.50
2018-06-22T14:14:12.146Z,81.30
2018-06-22T14:16:41.392Z,82.10
2018-06-22T14:19:09.958Z,84.20
2018-06-22T14:21:38.435Z,81.10
2018-06-22T14:24:07.645Z,80.50
2018-06-22T14:26:36.060Z,75.90
2018-06-22T14:29:04.597Z,76.20
2018-06-22T14:31:32.989Z,74.00
2018-06-22T14:34:01.472Z,78.50
2018-06-22T14:36:29.882Z,76.70
2018-06-22T14:38:58.283Z,75.80
2018-06-22T14:41:26.823Z,70.70
2018-06-22T14:43:55.244Z,68.60
2018-06-22T14:46:23.675Z,67.90
2018-06-22T14:48:52.042Z,70.00
2018-06-22T14:51:20.467Z,70.60
2018-06-22T14:53:54.100Z,68.50
2018-06-22T14:56:27.790Z,68.40
2018-06-22T14:59:01.498Z,66.50
2018-06-22T15:01:35.281Z,62.70
2018-06-22T15:04:09.044Z,65.30
2018-06-22T15:06:42.699Z,63.50
2018-06-22T15:09:11.743Z,66.40
2018-06-22T15:11:40.097Z,70.00
2018-06-22T15:14:08.516Z,75.10
2018-06-22T15:16:36.902Z,75.10
2018-06-22T15:19:06.867Z,76.10
2018-06-22T15:21:35.249Z,77.50
2018-06-22T15:24:03.616Z,79.90
2018-06-22T15:26:31.979Z,80.90
2018-06-22T15:29:00.341Z,80.30
2018-06-22T15:31:28.736Z,80.90
2018-06-22T15:34:02.383Z,80.70
2018-06-22T15:36:36.197Z,80.90
2018-06-22T15:39:12.964Z,81.90
2018-06-22T15:41:47.075Z,80.80
2018-06-22T15:44:20.779Z,83.80
2018-06-22T15:46:54.350Z,82.80
2018-06-22T15:49:28.109Z,84.80
2018-06-22T15:52:01.789Z,84.00
2018-06-22T15:54:35.535Z,83.50
2018-06-22T15:57:03.931Z,81.00
2018-06-22T15:59:32.285Z,82.60
2018-06-22T16:02:05.964Z,82.50
2018-06-22T16:04:34.309Z,82.50
2018-06-22T16:07:02.695Z,82.80
2018-06-22T16:09:31.104Z,83.00
2018-06-22T16:12:04.706Z,83.80
2018-06-22T16:14:39.191Z,84.20
2018-06-22T16:17:12.937Z,85.10
2018-06-22T16:19:46.876Z,82.80
2018-06-22T16:22:20.705Z,81.60
2018-06-22T16:24:54.377Z,82.60
2018-06-22T16:27:22.808Z,82.80
2018-06-22T16:29:51.137Z,84.90
2018-06-22T16:32:19.659Z,85.90
2018-06-22T16:34:47.999Z,83.70
2018-06-22T16:37:16.331Z,85.90
2018-06-22T16:42:12.850Z,85.20
2018-06-22T16:44:41.246Z,84.00
2018-06-22T16:47:09.665Z,80.70
2018-06-22T16:49:38.003Z,76.20
2018-06-22T16:52:06.403Z,76.40
2018-06-22T16:54:34.776Z,74.90
2018-06-22T16:57:03.206Z,74.20
2018-06-22T16:59:31.579Z,74.80
2018-06-22T17:02:00.254Z,77.80
2018-06-22T17:07:01.946Z,79.40
2018-06-22T17:09:35.598Z,81.40
2018-06-22T17:12:09.148Z,79.30
2018-06-22T17:14:42.726Z,79.80
2018-06-22T17:19:21.956Z,79.00
2018-06-22T17:21:50.601Z,80.80
2018-06-22T17:24:19.044Z,81.70
2018-06-22T17:26:47.408Z,85.30
2018-06-22T17:29:15.792Z,85.90
2018-06-22T17:31:44.162Z,84.80
2018-06-22T17:34:12.523Z,87.40
2018-06-22T17:36:40.991Z,85.70
2018-06-22T17:39:10.910Z,86.60
2018-06-22T17:41:39.306Z,86.40
2018-06-22T17:44:07.962Z,86.80
2018-06-22T17:46:36.518Z,87.20
2018-06-22T17:49:04.937Z,86.60
2018-06-22T17:51:33.368Z,87.90
2018-06-22T17:54:01.773Z,89.40
2018-06-22T17:56:31.484Z,89.30
2018-06-22T17:59:05.400Z,89.30
2018-06-22T18:01:39.037Z,88.10
2018-06-22T18:04:12.716Z,89.10
2018-06-22T18:06:46.504Z,86.90
2018-06-22T18:09:20.049Z,87.60
2018-06-22T18:11:53.758Z,85.30
2018-06-22T18:14:22.465Z,87.30
2018-06-22T18:16:50.865Z,87.20
2018-06-22T18:19:19.507Z,85.00
2018-06-22T18:21:47.862Z,85.80
2018-06-22T18:24:16.257Z,86.20
2018-06-22T18:26:44.650Z,87.50
2018-06-22T18:29:13.010Z,86.90
2018-06-22T18:31:41.374Z,89.10
2018-06-22T18:34:09.744Z,89.20
2018-06-22T18:36:38.185Z,88.40
2018-06-22T18:39:09.269Z,88.50
2018-06-22T18:41:37.659Z,89.70
2018-06-22T18:44:05.997Z,90.00
2018-06-22T18:46:34.390Z,89.30
2018-06-22T18:49:02.754Z,90.00
2018-06-22T18:51:31.152Z,90.00
2018-06-22T18:54:04.863Z,90.40
2018-06-22T18:56:45.000Z,90.50
2018-06-22T18:59:18.839Z,91.10
2018-06-22T19:01:52.481Z,91.40
2018-06-22T19:04:21.001Z,91.00
2018-06-22T19:06:49.374Z,91.40
2018-06-22T19:09:17.754Z,91.40
2018-06-22T19:11:46.346Z,91.70
2018-06-22T19:14:14.840Z,92.10
2018-06-22T19:16:43.258Z,91.90
2018-06-22T19:19:11.798Z,91.80
2018-06-22T19:21:40.210Z,92.30
2018-06-22T19:24:08.602Z,92.90
2018-06-22T19:26:37.046Z,92.50
2018-06-22T19:29:05.445Z,92.90
2018-06-22T19:31:33.815Z,93.50
2018-06-22T19:34:02.304Z,93.50
2018-06-22T19:36:30.677Z,93.50
2018-06-22T19:38:59.202Z,93.80
2018-06-22T19:41:27.657Z,93.90
2018-06-22T19:44:01.279Z,94.30
2018-06-22T19:46:35.067Z,94.40
2018-06-22T19:49:08.871Z,94.60
2018-06-22T19:51:43.609Z,95.00
2018-06-22T19:54:12.014Z,95.00
2018-06-22T19:56:40.445Z,95.50
2018-06-22T19:59:08.821Z,95.40
2018-06-22T20:01:37.199Z,95.70
2018-06-22T20:04:06.176Z,95.90
2018-06-22T20:09:04.818Z,96.30
2018-06-22T20:11:34.193Z,96.30
2018-06-22T20:14:02.614Z,96.40
2018-06-22T20:16:31.026Z,96.40
2018-06-22T20:18:59.409Z,96.50
2018-06-22T20:21:28.637Z,96.60
2018-06-22T20:23:57.036Z,97.00
2018-06-22T20:26:25.467Z,97.20
2018-06-22T20:28:53.853Z,97.20
2018-06-22T20:31:28.147Z,97.10
2018-06-22T20:34:00.709Z,97.20
2018-06-22T20:36:34.481Z,97.30
2018-06-22T20:39:08.106Z,97.30
2018-06-22T20:41:42.247Z,97.30
2018-06-22T20:44:15.944Z,97.30
2018-06-22T20:46:49.751Z,97.50
2018-06-22T20:49:23.376Z,97.50
2018-06-22T20:51:51.753Z,97.60
2018-06-22T20:54:20.148Z,97.90
2018-06-22T20:56:48.592Z,98.10
2018-06-22T20:59:16.952Z,98.00
2018-06-22T21:01:45.326Z,98.20
2018-06-22T21:04:13.794Z,98.30
2018-06-22T21:06:42.169Z,98.30
2018-06-22T21:09:11.096Z,98.40
2018-06-22T21:11:39.454Z,98.40
2018-06-22T21:14:07.954Z,98.50
2018-06-22T21:16:37.070Z,98.50
2018-06-22T21:19:05.469Z,98.60
2018-06-22T21:21:39.116Z,98.60
2018-06-22T21:24:07.458Z,98.50
2018-06-22T21:26:35.831Z,98.60
2018-06-22T21:29:09.389Z,98.70
2018-06-22T21:31:43.115Z,98.70
2018-06-22T21:34:16.805Z,98.80
2018-06-22T21:36:50.494Z,98.90
2018-06-22T21:39:19.646Z,99.10
2018-06-22T21:41:48.012Z,99.10
2018-06-22T21:44:16.388Z,99.10
2018-06-22T21:46:44.790Z,99.00
2018-06-22T21:49:13.090Z,99.10
2018-06-22T21:51:41.412Z,99.10
2018-06-22T21:54:09.802Z,99.30
2018-06-22T21:56:38.184Z,99.30
2018-06-22T22:01:34.816Z,99.60
2018-06-22T22:04:03.183Z,99.60
2018-06-22T22:06:31.551Z,99.70
2018-06-22T22:08:59.933Z,99.70
2018-06-22T22:11:33.517Z,99.90
2018-06-22T22:14:01.877Z,99.90
2018-06-22T22:16:30.219Z,99.90
2018-06-22T22:18:58.559Z,99.90
2018-06-22T22:21:26.954Z,99.90
2018-06-22T22:23:55.320Z,99.90
2018-06-22T22:26:23.673Z,99.90
2018-06-22T22:28:52.015Z,99.90
2018-06-22T22:31:20.369Z,99.90
2018-06-22T22:33:49.132Z,99.90
2018-06-22T22:36:17.490Z,99.90
2018-06-22T22:38:45.845Z,99.90
2018-06-22T22:41:14.189Z,99.90
2018-06-22T22:43:42.514Z,99.90
2018-06-22T22:46:10.885Z,99.90
2018-06-22T22:48:39.232Z,99.90
2018-06-22T22:51:07.600Z,99.90
2018-06-22T22:53:35.908Z,99.90
2018-06-22T22:56:04.305Z,99.90
2018-06-22T22:58:32.666Z,99.90
2018-06-22T23:01:01.017Z,99.90
2018-06-22T23:03:29.377Z,99.90
2018-06-22T23:05:58.720Z,99.90
2018-06-22T23:08:27.080Z,99.90
2018-06-22T23:10:55.601Z,99.90
2018-06-22T23:13:23.952Z,99.90
2018-06-22T23:15:52.316Z,99.90
2018-06-22T23:18:20.831Z,99.90
2018-06-22T23:20:49.155Z,99.90
2018-06-22T23:23:31.725Z,99.90
2018-06-22T23:26:00.443Z,99.90
2018-06-22T23:28:28.897Z,99.90
2018-06-22T23:30:57.303Z,99.90
2018-06-22T23:33:25.634Z,99.90
2018-06-22T23:35:54.021Z,99.90
2018-06-22T23:38:22.349Z,99.90
2018-06-22T23:40:50.739Z,99.90
2018-06-22T23:43:19.041Z,99.90
2018-06-22T23:45:48.138Z,99.90
2018-06-22T23:48:17.216Z,99.90
2018-06-22T23:53:13.604Z,99.90
2018-06-22T23:55:42.156Z,99.90
2018-06-22T23:58:10.569Z,99.90
